Pagina principale
METAR-TAF:

METAR-TAF

Aeroporti :

Aeroporto del Lussemburgo

Lussemburgo, Lussemburgo

latitudine: 49-37N, longitudine: 006-13E, altezza: 376 m

Osservazione

Il bollettino è stato emesso 18 minuti fa, alle 23:50 UTC
Vento 10 kt da nord/nord-est
Temperature 11°C
Umidità 82%
Pressione 1025 hPa
Visibilità: 7000 m

METAR: ELLX 192350Z AUTO 03010KT 7000 NCD 11/08 Q1025 NOSIG

Ora: 02:08 (00:08 UTC)

Previsione

Il bollettino è stato emesso 7 ore e 8 minuti fa, alle 17:00 UTC
Previsione valida dal 19 alle 18 UTC al 20 alle 24 UTC
Vento 8 kt da nord-est
Visibilità 10 km o più
nessuna nube inferiore a 1500 m e nessun cumulonembo
Probabilità 40% :
Temporaneamente
dal 20 alle 00 UTC al 20 alle 08 UTC
Vento 3 kt da nord-est
Visibilità: 2000 m
foschia

TAF: ELLX 191700Z 1918/2024 05008KT CAVOK PROB40 TEMPO 2000/2008 04003KT 2000 BR

Osservazioni e previsioni meteorologiche di più di 4000 aeroporti (messaggi METAR e TAF).

Le stazioni disponibili sono rappresentate dai dischi gialli e rossi sulla carta.

Puntare il mouse per vedere il nome della stazione.

Clicca sopra per visualizzare le osservazioni e previsioni meteorologiche.

Per cambiare la mappa : fare clic sui pulsanti verdi con una croce nera per ingrandire, il pulsante verde con un trattino per diminuire, o sulla freccia verde per le mappe adiacenti.


METAR-TAF: